createdAt,value
2018-12-17T00:01:16.277Z,1.27
2018-12-17T00:03:45.354Z,1.27
2018-12-17T00:06:14.521Z,1.29
2018-12-17T00:08:43.663Z,1.23
2018-12-17T00:11:12.799Z,1.22
2018-12-17T00:13:41.881Z,1.22
2018-12-17T00:16:10.976Z,1.24
2018-12-17T00:18:40.074Z,1.21
2018-12-17T00:21:09.195Z,1.15
2018-12-17T00:23:38.294Z,1.17
2018-12-17T00:26:07.408Z,1.18
2018-12-17T00:28:36.477Z,1.26
2018-12-17T00:31:05.601Z,1.30
2018-12-17T00:33:35.425Z,1.36
2018-12-17T00:36:04.575Z,1.41
2018-12-17T00:38:33.656Z,1.34
2018-12-17T00:41:02.775Z,1.29
2018-12-17T00:43:32.139Z,1.37
2018-12-17T00:46:01.273Z,1.30
2018-12-17T00:48:30.418Z,1.21
2018-12-17T00:50:59.504Z,1.11
2018-12-17T00:53:28.633Z,1.11
2018-12-17T00:55:57.739Z,1.07
2018-12-17T00:58:26.873Z,1.09
2018-12-17T01:00:55.997Z,1.06
2018-12-17T01:03:25.113Z,1.07
2018-12-17T01:05:54.206Z,1.07
2018-12-17T01:08:23.334Z,1.12
2018-12-17T01:10:52.447Z,1.13
2018-12-17T01:13:21.549Z,1.15
2018-12-17T01:15:50.653Z,1.17
2018-12-17T01:18:19.793Z,1.19
2018-12-17T01:20:48.919Z,1.22
2018-12-17T01:23:18.019Z,1.24
2018-12-17T01:25:47.129Z,1.26
2018-12-17T01:28:22.120Z,1.27
2018-12-17T01:30:48.074Z,1.24
2018-12-17T01:33:17.190Z,1.18
2018-12-17T01:35:46.298Z,1.17
2018-12-17T01:38:15.407Z,1.11
2018-12-17T01:40:44.533Z,1.14
2018-12-17T01:43:13.637Z,1.15
2018-12-17T01:45:42.742Z,1.16
2018-12-17T01:48:12.365Z,1.02
2018-12-17T01:50:41.552Z,1.01
2018-12-17T01:53:10.661Z,1.07
2018-12-17T01:55:39.782Z,1.06
2018-12-17T01:58:08.926Z,1.09
2018-12-17T02:00:38.029Z,1.02
2018-12-17T02:03:07.335Z,1.08
2018-12-17T02:05:36.428Z,1.07
2018-12-17T02:08:05.530Z,1.03
2018-12-17T02:10:34.626Z,1.07
2018-12-17T02:13:03.732Z,1.04
2018-12-17T02:15:32.853Z,1.06
2018-12-17T02:18:02.011Z,1.05
2018-12-17T02:20:31.098Z,1.06
2018-12-17T02:23:00.465Z,1.05
2018-12-17T02:25:29.578Z,1.01
2018-12-17T02:27:58.677Z,1.05
2018-12-17T02:30:27.772Z,1.08
2018-12-17T02:32:56.898Z,1.09
2018-12-17T02:35:26.011Z,1.04
2018-12-17T02:37:55.169Z,1.06
2018-12-17T02:40:24.769Z,1.13
2018-12-17T02:42:53.880Z,1.15
2018-12-17T02:45:23.007Z,1.16
2018-12-17T02:47:52.118Z,1.12
2018-12-17T02:50:21.236Z,1.06
2018-12-17T02:52:50.352Z,1.08
2018-12-17T02:55:19.445Z,1.08
2018-12-17T02:57:48.586Z,1.11
2018-12-17T03:00:17.692Z,1.06
2018-12-17T03:02:46.823Z,1.13
2018-12-17T03:05:15.934Z,1.12
2018-12-17T03:07:45.062Z,1.21
2018-12-17T03:10:14.155Z,1.20
2018-12-17T03:12:43.238Z,1.20
2018-12-17T03:15:12.326Z,1.25
2018-12-17T03:17:41.409Z,1.25
2018-12-17T03:20:10.511Z,1.24
2018-12-17T03:22:39.650Z,1.28
2018-12-17T03:25:08.740Z,1.32
2018-12-17T03:27:37.819Z,1.23
2018-12-17T03:30:07.333Z,1.26
2018-12-17T03:32:36.563Z,1.31
2018-12-17T03:35:05.705Z,1.36
2018-12-17T03:37:34.809Z,1.32
2018-12-17T03:40:03.930Z,1.36
2018-12-17T03:42:33.039Z,1.39
2018-12-17T03:45:02.136Z,1.36
2018-12-17T03:47:31.234Z,1.41
2018-12-17T03:50:00.391Z,1.41
2018-12-17T03:52:29.500Z,1.43
2018-12-17T03:54:58.573Z,1.40
2018-12-17T03:57:27.688Z,1.32
2018-12-17T03:59:56.784Z,1.35
2018-12-17T04:02:25.938Z,1.33
2018-12-17T04:04:55.290Z,1.37
2018-12-17T04:07:24.592Z,1.37
2018-12-17T04:09:53.711Z,1.30
2018-12-17T04:12:22.801Z,1.35
2018-12-17T04:14:51.929Z,1.31
2018-12-17T04:17:21.032Z,1.34
2018-12-17T04:19:50.139Z,1.37
2018-12-17T04:22:19.293Z,1.43
2018-12-17T04:24:48.402Z,1.46
2018-12-17T04:27:17.512Z,1.45
2018-12-17T04:29:46.606Z,1.48
2018-12-17T04:32:15.713Z,1.44
2018-12-17T04:34:44.836Z,1.36
2018-12-17T04:37:13.913Z,1.32
2018-12-17T04:39:43.011Z,1.36
2018-12-17T04:42:12.110Z,1.39
2018-12-17T04:44:41.261Z,1.37
2018-12-17T04:47:10.386Z,1.40
2018-12-17T04:49:39.522Z,1.35
2018-12-17T04:52:08.620Z,1.22
2018-12-17T04:54:37.742Z,1.25
2018-12-17T04:57:06.836Z,1.29
2018-12-17T04:59:35.959Z,1.27
2018-12-17T05:02:05.598Z,1.28
2018-12-17T05:04:34.772Z,1.27
2018-12-17T05:07:03.908Z,1.27
2018-12-17T05:09:33.045Z,1.28
2018-12-17T05:12:02.163Z,1.28
2018-12-17T05:14:31.280Z,1.21
2018-12-17T05:17:00.404Z,1.12
2018-12-17T05:19:29.505Z,1.09
2018-12-17T05:21:59.053Z,1.18
2018-12-17T05:24:28.158Z,1.11
2018-12-17T05:26:57.282Z,1.09
2018-12-17T05:29:26.402Z,1.10
2018-12-17T05:31:55.503Z,1.11
2018-12-17T05:34:24.632Z,1.13
2018-12-17T05:36:53.743Z,1.14
2018-12-17T05:39:22.863Z,1.06
2018-12-17T05:41:51.969Z,1.07
2018-12-17T05:44:21.070Z,1.05
2018-12-17T05:46:50.447Z,1.03
2018-12-17T05:49:19.598Z,1.05
2018-12-17T05:51:48.716Z,1.15
2018-12-17T05:54:17.888Z,1.21
2018-12-17T05:56:47.066Z,1.22
2018-12-17T05:59:16.674Z,1.21
2018-12-17T06:01:45.903Z,1.28
2018-12-17T06:04:15.112Z,1.26
2018-12-17T06:06:44.211Z,1.16
2018-12-17T06:09:13.947Z,1.08
2018-12-17T06:11:43.122Z,1.08
2018-12-17T06:14:12.224Z,1.09
2018-12-17T06:16:41.339Z,1.13
2018-12-17T06:19:10.463Z,1.16
2018-12-17T06:21:39.651Z,1.18
2018-12-17T06:24:08.725Z,1.17
2018-12-17T06:26:37.844Z,1.15
2018-12-17T06:29:06.958Z,1.15
2018-12-17T06:31:36.049Z,1.09
2018-12-17T06:34:05.160Z,1.00
2018-12-17T06:36:34.219Z,1.02
2018-12-17T06:39:04.727Z,1.09
2018-12-17T06:41:33.820Z,1.12
2018-12-17T06:44:02.939Z,1.16
2018-12-17T06:46:32.041Z,1.24
2018-12-17T06:49:01.130Z,1.25
2018-12-17T06:51:30.617Z,1.28
2018-12-17T06:53:59.714Z,1.24
2018-12-17T06:56:28.808Z,1.33
2018-12-17T06:58:57.889Z,1.30
2018-12-17T07:01:28.172Z,1.34
2018-12-17T07:03:57.543Z,1.37
2018-12-17T07:06:27.293Z,1.35
2018-12-17T07:08:56.436Z,1.42
2018-12-17T07:11:25.972Z,1.45
2018-12-17T07:13:55.092Z,1.48
2018-12-17T07:16:24.189Z,1.56
2018-12-17T07:18:54.315Z,1.56
2018-12-17T07:21:23.455Z,1.65
2018-12-17T07:23:52.542Z,1.62
2018-12-17T07:26:21.631Z,1.60
2018-12-17T07:28:50.750Z,1.67
2018-12-17T07:31:19.902Z,1.70
2018-12-17T07:33:49.008Z,1.74
2018-12-17T07:36:18.216Z,1.68
2018-12-17T07:38:47.348Z,1.71
2018-12-17T07:41:16.462Z,1.68
2018-12-17T07:43:45.607Z,1.72
2018-12-17T07:46:14.716Z,1.75
2018-12-17T07:48:43.821Z,1.77
2018-12-17T07:51:12.917Z,1.81
2018-12-17T07:53:42.028Z,1.86
2018-12-17T07:56:11.121Z,1.87
2018-12-17T07:58:40.217Z,1.83
2018-12-17T08:01:09.321Z,1.85
2018-12-17T08:03:38.402Z,1.89
2018-12-17T08:06:07.514Z,1.86
2018-12-17T08:08:36.610Z,1.83
2018-12-17T08:11:05.704Z,1.82
2018-12-17T08:13:34.813Z,1.78
2018-12-17T08:16:03.982Z,1.82
2018-12-17T08:18:33.086Z,1.80
2018-12-17T08:21:02.201Z,1.80
2018-12-17T08:23:31.309Z,1.82
2018-12-17T08:26:00.452Z,1.79
2018-12-17T08:28:29.577Z,1.80
2018-12-17T08:30:58.712Z,1.82
2018-12-17T08:33:27.781Z,1.85
2018-12-17T08:35:57.067Z,1.90
2018-12-17T08:38:26.171Z,1.91
2018-12-17T08:40:55.259Z,1.90
2018-12-17T08:43:24.360Z,1.82
2018-12-17T08:45:53.476Z,1.79
2018-12-17T08:48:22.584Z,1.77
2018-12-17T08:50:51.687Z,1.82
2018-12-17T08:53:20.805Z,1.86
2018-12-17T08:55:50.006Z,1.68
2018-12-17T08:58:19.286Z,1.67
2018-12-17T09:00:48.446Z,1.75
2018-12-17T09:03:17.547Z,1.83
2018-12-17T09:05:46.669Z,1.80
2018-12-17T09:08:15.767Z,1.80
2018-12-17T09:10:44.912Z,1.89
2018-12-17T09:13:14.089Z,1.88
2018-12-17T09:15:43.269Z,1.81
2018-12-17T09:18:12.360Z,1.77
2018-12-17T09:20:41.470Z,1.67
2018-12-17T09:23:10.601Z,1.69
2018-12-17T09:25:39.816Z,1.65
2018-12-17T09:28:08.941Z,1.70
2018-12-17T09:30:41.277Z,1.71
2018-12-17T09:33:09.204Z,1.77
2018-12-17T09:35:38.364Z,1.76
2018-12-17T09:38:07.485Z,1.76
2018-12-17T09:40:36.593Z,1.81
2018-12-17T09:43:05.688Z,1.79
2018-12-17T09:45:34.882Z,1.80
2018-12-17T09:48:03.982Z,1.75
2018-12-17T09:50:33.121Z,1.74
2018-12-17T09:53:02.256Z,1.72
2018-12-17T09:55:31.379Z,1.72
2018-12-17T09:58:00.473Z,1.75
2018-12-17T10:00:29.622Z,1.70
2018-12-17T10:02:58.698Z,1.74
2018-12-17T10:05:27.833Z,1.78
2018-12-17T10:07:57.856Z,1.79
2018-12-17T10:10:26.969Z,1.76
2018-12-17T10:12:56.094Z,1.86
2018-12-17T10:15:25.211Z,1.81
2018-12-17T10:17:54.312Z,1.92
2018-12-17T10:20:23.490Z,1.83
2018-12-17T10:22:52.584Z,1.97
2018-12-17T10:25:21.693Z,2.02
2018-12-17T10:27:50.813Z,2.10
2018-12-17T10:30:19.915Z,2.14
2018-12-17T10:32:49.061Z,2.08
2018-12-17T10:35:18.184Z,2.16
2018-12-17T10:37:47.327Z,2.26
2018-12-17T10:40:16.473Z,2.21
2018-12-17T10:42:45.609Z,2.14
2018-12-17T10:45:14.725Z,2.18
2018-12-17T10:47:43.833Z,2.18
2018-12-17T10:50:12.933Z,2.17
2018-12-17T10:52:42.025Z,2.08
2018-12-17T10:55:11.135Z,2.12
2018-12-17T10:57:40.249Z,2.09
2018-12-17T11:00:14.262Z,2.09
2018-12-17T11:02:43.409Z,2.13
2018-12-17T11:05:15.138Z,2.10
2018-12-17T11:07:44.266Z,2.13
2018-12-17T11:10:13.393Z,2.15
2018-12-17T11:15:26.020Z,2.09
2018-12-17T11:17:55.131Z,2.13
2018-12-17T11:20:24.648Z,1.99
2018-12-17T11:22:54.001Z,1.93
2018-12-17T11:25:23.090Z,1.90
2018-12-17T11:27:52.284Z,2.01
2018-12-17T11:30:21.377Z,2.02
2018-12-17T11:32:50.480Z,2.00
2018-12-17T11:35:19.585Z,2.00
2018-12-17T11:37:48.709Z,1.96
2018-12-17T11:40:17.833Z,2.05
2018-12-17T11:42:46.957Z,2.02
2018-12-17T11:45:16.101Z,1.87
2018-12-17T11:47:45.197Z,1.73
2018-12-17T11:50:14.346Z,1.72
2018-12-17T11:52:43.592Z,1.65
2018-12-17T11:55:12.705Z,1.72
2018-12-17T11:57:55.078Z,1.63
2018-12-17T12:00:26.174Z,1.72
2018-12-17T12:02:59.109Z,1.78
2018-12-17T12:06:29.634Z,1.67
2018-12-17T12:08:58.757Z,1.51
2018-12-17T12:11:27.908Z,1.59
2018-12-17T12:13:57.013Z,1.59
2018-12-17T12:16:26.138Z,1.57
2018-12-17T12:18:55.341Z,1.62
2018-12-17T12:21:24.495Z,1.66
2018-12-17T12:23:53.602Z,1.62
2018-12-17T12:26:22.796Z,1.74
2018-12-17T12:28:51.895Z,1.80
2018-12-17T12:31:21.036Z,1.78
2018-12-17T12:33:50.200Z,1.84
2018-12-17T12:36:21.838Z,1.86
2018-12-17T12:38:50.952Z,1.88
2018-12-17T12:41:20.234Z,1.89
2018-12-17T12:43:49.330Z,1.84
2018-12-17T12:46:20.770Z,1.82
2018-12-17T12:48:49.883Z,1.78
2018-12-17T12:51:19.140Z,1.75
2018-12-17T12:53:48.246Z,1.80
2018-12-17T12:56:17.391Z,1.78
2018-12-17T12:58:46.597Z,1.71
2018-12-17T13:01:15.757Z,1.69
2018-12-17T13:03:44.867Z,1.70
2018-12-17T13:06:13.991Z,1.71
2018-12-17T13:08:43.087Z,1.78
2018-12-17T13:11:12.222Z,1.76
2018-12-17T13:13:41.329Z,1.75
2018-12-17T13:16:10.471Z,1.72
2018-12-17T13:18:39.564Z,1.71
2018-12-17T13:21:08.674Z,1.71
2018-12-17T13:23:37.833Z,1.71
2018-12-17T13:26:06.964Z,1.72
2018-12-17T13:28:36.080Z,1.64
2018-12-17T13:31:05.213Z,1.57
2018-12-17T13:33:34.325Z,1.50
2018-12-17T13:36:04.202Z,1.36
2018-12-17T13:38:33.325Z,1.44
2018-12-17T13:41:02.463Z,1.41
2018-12-17T13:43:31.565Z,1.44
2018-12-17T13:46:00.746Z,1.42
2018-12-17T13:48:29.908Z,1.46
2018-12-17T13:51:03.036Z,1.42
2018-12-17T13:53:33.036Z,1.35
2018-12-17T13:56:02.279Z,1.36
2018-12-17T13:58:31.424Z,1.34
2018-12-17T14:01:00.522Z,1.26
2018-12-17T14:03:29.682Z,1.27
2018-12-17T14:05:58.904Z,1.30
2018-12-17T14:08:28.034Z,1.35
2018-12-17T14:10:57.916Z,1.35
2018-12-17T14:13:27.045Z,1.38
2018-12-17T14:16:01.242Z,1.37
2018-12-17T14:18:35.347Z,1.32
2018-12-17T14:21:09.545Z,1.32
2018-12-17T14:23:38.662Z,1.35
2018-12-17T14:26:07.785Z,1.24
2018-12-17T14:28:36.934Z,1.22
2018-12-17T14:31:06.032Z,1.19
2018-12-17T14:33:35.117Z,1.18
2018-12-17T14:36:09.222Z,1.14
2018-12-17T14:38:39.534Z,1.11
2018-12-17T14:41:08.660Z,1.19
2018-12-17T14:43:37.768Z,1.26
2018-12-17T14:46:06.865Z,1.28
2018-12-17T14:48:35.998Z,1.26
2018-12-17T14:51:05.100Z,1.23
2018-12-17T14:53:34.216Z,1.21
2018-12-17T14:56:03.338Z,1.26
2018-12-17T14:58:32.544Z,1.28
2018-12-17T15:01:01.692Z,1.24
2018-12-17T15:03:30.798Z,1.07
2018-12-17T15:05:59.917Z,1.08
2018-12-17T15:08:29.008Z,1.06
2018-12-17T15:10:58.131Z,1.08
2018-12-17T15:13:27.270Z,1.04
2018-12-17T15:15:56.376Z,1.06
2018-12-17T15:18:25.523Z,1.07
2018-12-17T15:20:54.658Z,1.07
2018-12-17T15:23:23.861Z,0.99
2018-12-17T15:25:52.962Z,1.02
2018-12-17T15:28:22.068Z,1.00
2018-12-17T15:30:51.170Z,1.04
2018-12-17T15:33:20.317Z,1.04
2018-12-17T15:35:49.485Z,1.08
2018-12-17T15:38:18.594Z,1.08
2018-12-17T15:40:47.726Z,1.09
2018-12-17T15:43:16.853Z,1.10
2018-12-17T15:45:46.024Z,1.11
2018-12-17T15:48:15.132Z,1.12
2018-12-17T15:50:44.229Z,1.12
2018-12-17T15:53:13.384Z,1.06
2018-12-17T15:55:42.483Z,0.93
2018-12-17T15:58:11.573Z,1.03
2018-12-17T16:00:40.659Z,1.00
2018-12-17T16:03:09.754Z,0.98
2018-12-17T16:05:38.864Z,1.05
2018-12-17T16:08:07.948Z,1.11
2018-12-17T16:10:37.082Z,1.14
2018-12-17T16:13:06.205Z,1.17
2018-12-17T16:15:35.452Z,1.20
2018-12-17T16:18:04.533Z,1.21
2018-12-17T16:20:33.637Z,1.16
2018-12-17T16:23:02.786Z,1.12
2018-12-17T16:25:31.888Z,1.13
2018-12-17T16:28:01.017Z,1.11
2018-12-17T16:30:30.117Z,1.07
2018-12-17T16:32:59.271Z,1.07
2018-12-17T16:35:28.469Z,1.06
2018-12-17T16:37:57.625Z,1.02
2018-12-17T16:40:26.957Z,1.13
2018-12-17T16:42:56.138Z,1.10
2018-12-17T16:45:25.635Z,1.06
2018-12-17T16:47:54.745Z,1.02
2018-12-17T16:50:23.841Z,1.09
2018-12-17T16:52:53.012Z,1.10
2018-12-17T16:55:22.209Z,1.19
2018-12-17T16:57:51.341Z,1.19
2018-12-17T17:00:21.420Z,1.18
2018-12-17T17:02:50.617Z,1.17
2018-12-17T17:05:19.710Z,1.17
2018-12-17T17:07:50.367Z,1.19
2018-12-17T17:10:19.491Z,1.17
2018-12-17T17:12:48.890Z,1.18
2018-12-17T17:15:18.045Z,1.20
2018-12-17T17:17:47.178Z,1.22
2018-12-17T17:20:16.320Z,1.18
2018-12-17T17:22:45.411Z,1.15
2018-12-17T17:25:14.544Z,1.14
2018-12-17T17:27:43.668Z,1.06
2018-12-17T17:30:12.845Z,1.06
2018-12-17T17:32:41.937Z,1.07
2018-12-17T17:35:11.097Z,0.99
2018-12-17T17:37:40.196Z,0.98
2018-12-17T17:40:09.317Z,0.97
2018-12-17T17:42:38.430Z,0.97
2018-12-17T17:45:07.570Z,0.96
2018-12-17T17:47:36.775Z,0.98
2018-12-17T17:50:06.610Z,1.00
2018-12-17T17:52:35.869Z,0.93
2018-12-17T17:55:05.254Z,0.94
2018-12-17T17:57:34.363Z,0.93
2018-12-17T18:00:03.481Z,0.95
2018-12-17T18:02:32.633Z,0.94
2018-12-17T18:05:01.776Z,0.94
2018-12-17T18:07:30.869Z,1.01
2018-12-17T18:10:00.025Z,1.04
2018-12-17T18:12:30.003Z,1.00
2018-12-17T18:14:59.209Z,1.04
2018-12-17T18:17:28.942Z,1.00
2018-12-17T18:19:58.092Z,0.98
2018-12-17T18:22:27.218Z,1.04
2018-12-17T18:24:57.877Z,1.00
2018-12-17T18:27:27.611Z,0.96
2018-12-17T18:29:57.073Z,0.97
2018-12-17T18:32:28.061Z,0.88
2018-12-17T18:34:57.983Z,0.91
2018-12-17T18:37:27.091Z,0.98
2018-12-17T18:39:56.192Z,1.01
2018-12-17T18:42:25.274Z,0.95
2018-12-17T18:44:54.388Z,0.89
2018-12-17T18:47:25.891Z,0.84
2018-12-17T18:49:54.752Z,0.84
2018-12-17T18:52:23.863Z,0.86
2018-12-17T18:54:52.985Z,0.81
2018-12-17T18:57:22.197Z,0.77
2018-12-17T18:59:51.345Z,0.81
2018-12-17T19:02:20.433Z,0.71
2018-12-17T19:04:49.565Z,0.73
2018-12-17T19:07:18.717Z,0.78
2018-12-17T19:09:47.833Z,0.80
2018-12-17T19:12:16.949Z,0.83
2018-12-17T19:14:46.038Z,0.87
2018-12-17T19:17:15.176Z,0.84
2018-12-17T19:19:44.271Z,0.82
2018-12-17T19:22:13.371Z,0.85
2018-12-17T19:24:45.230Z,0.85
2018-12-17T19:27:15.375Z,0.88
2018-12-17T19:29:44.505Z,0.84
2018-12-17T19:32:13.611Z,0.87
2018-12-17T19:34:42.763Z,0.88
2018-12-17T19:37:14.129Z,0.91
2018-12-17T19:39:44.783Z,0.99
2018-12-17T19:42:14.437Z,1.00
2018-12-17T19:44:43.594Z,0.99
2018-12-17T19:47:12.690Z,0.97
2018-12-17T19:49:41.886Z,0.90
2018-12-17T19:52:11.050Z,0.88
2018-12-17T19:54:40.157Z,0.84
2018-12-17T19:57:09.243Z,0.90
2018-12-17T19:59:38.348Z,0.92
2018-12-17T20:02:07.016Z,0.90
2018-12-17T20:04:36.161Z,0.89
2018-12-17T20:07:05.251Z,0.84
2018-12-17T20:09:34.451Z,0.91
2018-12-17T20:12:03.527Z,0.96
2018-12-17T20:14:32.626Z,1.02
2018-12-17T20:17:01.778Z,1.01
2018-12-17T20:19:32.081Z,1.05
2018-12-17T20:22:02.350Z,1.04
2018-12-17T20:24:31.486Z,1.01
2018-12-17T20:27:00.605Z,0.98
2018-12-17T20:29:29.748Z,0.96
2018-12-17T20:31:58.836Z,0.96
2018-12-17T20:34:27.975Z,0.97
2018-12-17T20:36:57.094Z,0.93
2018-12-17T20:39:26.208Z,0.85
2018-12-17T20:41:55.374Z,0.56
2018-12-17T20:44:24.510Z,0.85
2018-12-17T20:46:53.624Z,0.88
2018-12-17T20:49:22.728Z,0.84
2018-12-17T20:51:51.949Z,0.82
2018-12-17T20:54:21.100Z,0.83
2018-12-17T20:56:50.191Z,0.85
2018-12-17T20:59:19.297Z,0.86
2018-12-17T21:01:48.409Z,0.84
2018-12-17T21:04:17.502Z,0.83
2018-12-17T21:06:49.936Z,0.85
2018-12-17T21:09:17.782Z,0.82
2018-12-17T21:11:46.890Z,0.84
2018-12-17T21:14:16.019Z,0.86
2018-12-17T21:16:45.148Z,0.87
2018-12-17T21:19:14.272Z,0.84
2018-12-17T21:21:43.369Z,0.85
2018-12-17T21:24:12.493Z,0.83
2018-12-17T21:26:41.588Z,0.80
2018-12-17T21:29:10.680Z,0.83
2018-12-17T21:31:39.762Z,0.82
2018-12-17T21:34:08.861Z,0.77
2018-12-17T21:36:37.982Z,0.77
2018-12-17T21:39:08.137Z,0.73
2018-12-17T21:41:37.222Z,0.72
2018-12-17T21:44:06.312Z,0.73
2018-12-17T21:46:35.403Z,0.78
2018-12-17T21:49:04.506Z,0.77
2018-12-17T21:51:33.600Z,0.84
2018-12-17T21:54:02.689Z,0.82
2018-12-17T21:56:32.057Z,0.83
2018-12-17T21:59:01.155Z,0.87
2018-12-17T22:01:30.243Z,0.93
2018-12-17T22:03:59.329Z,0.96
2018-12-17T22:06:28.422Z,0.92
2018-12-17T22:08:57.538Z,0.97
2018-12-17T22:11:26.655Z,0.88
2018-12-17T22:13:55.753Z,0.85
2018-12-17T22:16:24.869Z,0.81
2018-12-17T22:18:53.953Z,0.81
2018-12-17T22:21:23.044Z,0.86
2018-12-17T22:23:52.153Z,0.89
2018-12-17T22:26:21.237Z,0.86
2018-12-17T22:28:50.332Z,0.88
2018-12-17T22:31:19.414Z,0.83
2018-12-17T22:33:48.526Z,0.81
2018-12-17T22:36:17.636Z,0.80
2018-12-17T22:38:46.716Z,0.79
2018-12-17T22:41:15.809Z,0.83
2018-12-17T22:43:44.908Z,0.81
2018-12-17T22:46:14.025Z,0.77
2018-12-17T22:48:43.148Z,0.79
2018-12-17T22:51:12.224Z,0.80
2018-12-17T22:53:41.320Z,0.66
2018-12-17T22:56:10.432Z,0.63
2018-12-17T22:58:42.543Z,0.73
2018-12-17T23:01:10.683Z,0.72
2018-12-17T23:03:39.787Z,0.65
2018-12-17T23:06:08.904Z,0.60
2018-12-17T23:08:41.908Z,0.67
2018-12-17T23:11:21.934Z,0.67
2018-12-17T23:14:01.797Z,0.65
2018-12-17T23:16:41.526Z,0.66
2018-12-17T23:19:09.677Z,0.72
2018-12-17T23:21:38.804Z,0.78
2018-12-17T23:24:08.002Z,0.79
2018-12-17T23:26:37.112Z,0.87
2018-12-17T23:29:06.211Z,0.90
2018-12-17T23:31:35.356Z,0.88
2018-12-17T23:34:04.429Z,0.88
2018-12-17T23:36:33.556Z,0.82
2018-12-17T23:39:02.748Z,0.80
2018-12-17T23:41:31.849Z,0.81
2018-12-17T23:44:00.945Z,0.83
2018-12-17T23:46:30.057Z,0.83
2018-12-17T23:48:59.153Z,0.85
2018-12-17T23:51:28.244Z,0.93
2018-12-17T23:53:57.334Z,0.92
2018-12-17T23:56:26.476Z,0.98
2018-12-17T23:58:55.569Z,1.00
